sensor_id;sensor_type;location;lat;lon;timestamp;P1;durP1;ratioP1;P2;durP2;ratioP2
21243;SDS011;10780;50.942;4.028;2023-04-25T00:00:25;17.73;;;7.18;;
21243;SDS011;10780;50.942;4.028;2023-04-25T00:02:51;16.80;;;6.80;;
21243;SDS011;10780;50.942;4.028;2023-04-25T00:05:17;15.40;;;6.40;;
21243;SDS011;10780;50.942;4.028;2023-04-25T00:07:43;16.60;;;6.53;;
21243;SDS011;10780;50.942;4.028;2023-04-25T00:10:09;14.73;;;6.72;;
21243;SDS011;10780;50.942;4.028;2023-04-25T00:12:36;15.30;;;6.45;;
21243;SDS011;10780;50.942;4.028;2023-04-25T00:15:02;15.45;;;6.38;;
21243;SDS011;10780;50.942;4.028;2023-04-25T00:17:28;13.15;;;6.10;;
21243;SDS011;10780;50.942;4.028;2023-04-25T00:19:54;12.25;;;6.43;;
21243;SDS011;10780;50.942;4.028;2023-04-25T00:22:20;13.68;;;6.15;;
21243;SDS011;10780;50.942;4.028;2023-04-25T00:24:46;17.23;;;7.05;;
21243;SDS011;10780;50.942;4.028;2023-04-25T00:27:12;15.32;;;6.93;;
21243;SDS011;10780;50.942;4.028;2023-04-25T00:29:37;11.57;;;6.05;;
21243;SDS011;10780;50.942;4.028;2023-04-25T00:32:03;16.20;;;6.78;;
21243;SDS011;10780;50.942;4.028;2023-04-25T00:34:29;18.35;;;7.15;;
21243;SDS011;10780;50.942;4.028;2023-04-25T00:36:54;15.30;;;6.32;;
21243;SDS011;10780;50.942;4.028;2023-04-25T00:39:20;14.77;;;6.10;;
21243;SDS011;10780;50.942;4.028;2023-04-25T00:41:46;15.30;;;6.22;;
21243;SDS011;10780;50.942;4.028;2023-04-25T00:44:12;16.70;;;7.00;;
21243;SDS011;10780;50.942;4.028;2023-04-25T00:46:38;15.23;;;6.25;;
21243;SDS011;10780;50.942;4.028;2023-04-25T00:49:04;18.02;;;6.78;;
21243;SDS011;10780;50.942;4.028;2023-04-25T00:51:30;12.95;;;6.47;;
21243;SDS011;10780;50.942;4.028;2023-04-25T00:53:57;14.98;;;5.65;;
21243;SDS011;10780;50.942;4.028;2023-04-25T00:56:24;15.73;;;5.95;;
21243;SDS011;10780;50.942;4.028;2023-04-25T00:58:50;16.27;;;6.47;;
21243;SDS011;10780;50.942;4.028;2023-04-25T01:01:21;15.60;;;5.35;;
21243;SDS011;10780;50.942;4.028;2023-04-25T01:03:47;13.15;;;5.88;;
21243;SDS011;10780;50.942;4.028;2023-04-25T01:06:15;16.65;;;5.80;;
21243;SDS011;10780;50.942;4.028;2023-04-25T01:08:41;16.33;;;5.88;;
21243;SDS011;10780;50.942;4.028;2023-04-25T01:11:06;16.17;;;6.63;;
21243;SDS011;10780;50.942;4.028;2023-04-25T01:13:32;15.82;;;5.68;;
21243;SDS011;10780;50.942;4.028;2023-04-25T01:15:59;10.77;;;4.88;;
21243;SDS011;10780;50.942;4.028;2023-04-25T01:18:25;15.30;;;5.63;;
21243;SDS011;10780;50.942;4.028;2023-04-25T01:20:51;16.77;;;6.30;;
21243;SDS011;10780;50.942;4.028;2023-04-25T01:23:18;17.27;;;5.75;;
21243;SDS011;10780;50.942;4.028;2023-04-25T01:25:45;15.00;;;5.30;;
21243;SDS011;10780;50.942;4.028;2023-04-25T01:28:11;20.70;;;5.93;;
21243;SDS011;10780;50.942;4.028;2023-04-25T01:30:37;15.25;;;6.07;;
21243;SDS011;10780;50.942;4.028;2023-04-25T01:33:04;14.30;;;6.45;;
21243;SDS011;10780;50.942;4.028;2023-04-25T01:35:31;18.35;;;5.68;;
21243;SDS011;10780;50.942;4.028;2023-04-25T01:37:57;17.08;;;5.88;;
21243;SDS011;10780;50.942;4.028;2023-04-25T01:40:23;17.65;;;5.63;;
21243;SDS011;10780;50.942;4.028;2023-04-25T01:42:49;17.52;;;5.57;;
21243;SDS011;10780;50.942;4.028;2023-04-25T01:45:16;19.52;;;4.88;;
21243;SDS011;10780;50.942;4.028;2023-04-25T01:47:42;15.88;;;5.22;;
21243;SDS011;10780;50.942;4.028;2023-04-25T01:50:11;19.38;;;5.55;;
21243;SDS011;10780;50.942;4.028;2023-04-25T01:52:37;17.25;;;6.32;;
21243;SDS011;10780;50.942;4.028;2023-04-25T01:55:03;11.85;;;4.47;;
21243;SDS011;10780;50.942;4.028;2023-04-25T01:57:29;12.75;;;5.10;;
21243;SDS011;10780;50.942;4.028;2023-04-25T01:59:57;17.35;;;5.53;;
21243;SDS011;10780;50.942;4.028;2023-04-25T02:02:25;14.05;;;5.28;;
21243;SDS011;10780;50.942;4.028;2023-04-25T02:04:51;17.60;;;5.45;;
21243;SDS011;10780;50.942;4.028;2023-04-25T02:07:17;16.60;;;5.88;;
21243;SDS011;10780;50.942;4.028;2023-04-25T02:09:42;14.38;;;4.93;;
21243;SDS011;10780;50.942;4.028;2023-04-25T02:12:09;13.93;;;5.13;;
21243;SDS011;10780;50.942;4.028;2023-04-25T02:14:35;17.13;;;5.13;;
21243;SDS011;10780;50.942;4.028;2023-04-25T02:17:00;16.90;;;5.32;;
21243;SDS011;10780;50.942;4.028;2023-04-25T02:19:26;19.83;;;5.28;;
21243;SDS011;10780;50.942;4.028;2023-04-25T02:21:52;13.48;;;4.90;;
21243;SDS011;10780;50.942;4.028;2023-04-25T02:24:17;16.08;;;5.07;;
21243;SDS011;10780;50.942;4.028;2023-04-25T02:26:43;15.10;;;4.65;;
21243;SDS011;10780;50.942;4.028;2023-04-25T02:29:09;15.60;;;4.88;;
21243;SDS011;10780;50.942;4.028;2023-04-25T02:31:35;15.82;;;5.55;;
21243;SDS011;10780;50.942;4.028;2023-04-25T02:34:01;13.98;;;4.50;;
21243;SDS011;10780;50.942;4.028;2023-04-25T02:36:26;19.95;;;4.72;;
21243;SDS011;10780;50.942;4.028;2023-04-25T02:38:52;14.60;;;4.85;;
21243;SDS011;10780;50.942;4.028;2023-04-25T02:41:18;17.20;;;4.75;;
21243;SDS011;10780;50.942;4.028;2023-04-25T02:43:43;16.20;;;5.72;;
21243;SDS011;10780;50.942;4.028;2023-04-25T02:46:09;16.08;;;5.22;;
21243;SDS011;10780;50.942;4.028;2023-04-25T02:48:35;19.80;;;4.78;;
21243;SDS011;10780;50.942;4.028;2023-04-25T02:51:00;20.75;;;5.10;;
21243;SDS011;10780;50.942;4.028;2023-04-25T02:53:26;16.88;;;4.90;;
21243;SDS011;10780;50.942;4.028;2023-04-25T02:55:51;15.68;;;4.88;;
21243;SDS011;10780;50.942;4.028;2023-04-25T02:58:17;11.00;;;4.57;;
21243;SDS011;10780;50.942;4.028;2023-04-25T03:00:43;13.45;;;4.63;;
21243;SDS011;10780;50.942;4.028;2023-04-25T03:03:09;14.85;;;4.50;;
21243;SDS011;10780;50.942;4.028;2023-04-25T03:05:35;13.52;;;5.70;;
21243;SDS011;10780;50.942;4.028;2023-04-25T03:08:01;12.65;;;4.55;;
21243;SDS011;10780;50.942;4.028;2023-04-25T03:10:27;15.55;;;5.45;;
21243;SDS011;10780;50.942;4.028;2023-04-25T03:12:52;17.45;;;4.60;;
21243;SDS011;10780;50.942;4.028;2023-04-25T03:15:18;22.88;;;5.07;;
21243;SDS011;10780;50.942;4.028;2023-04-25T03:17:43;19.17;;;5.50;;
21243;SDS011;10780;50.942;4.028;2023-04-25T03:20:09;14.65;;;5.07;;
21243;SDS011;10780;50.942;4.028;2023-04-25T03:22:35;14.48;;;5.32;;
21243;SDS011;10780;50.942;4.028;2023-04-25T03:25:01;13.80;;;5.38;;
21243;SDS011;10780;50.942;4.028;2023-04-25T03:27:27;14.27;;;4.85;;
21243;SDS011;10780;50.942;4.028;2023-04-25T03:29:53;17.50;;;5.40;;
21243;SDS011;10780;50.942;4.028;2023-04-25T03:32:18;14.77;;;5.05;;
21243;SDS011;10780;50.942;4.028;2023-04-25T03:34:44;12.65;;;5.35;;
21243;SDS011;10780;50.942;4.028;2023-04-25T03:37:10;17.40;;;5.03;;
21243;SDS011;10780;50.942;4.028;2023-04-25T03:39:35;13.95;;;4.75;;
21243;SDS011;10780;50.942;4.028;2023-04-25T03:42:02;12.80;;;5.03;;
21243;SDS011;10780;50.942;4.028;2023-04-25T03:44:28;19.27;;;5.85;;
21243;SDS011;10780;50.942;4.028;2023-04-25T03:46:53;15.45;;;5.07;;
21243;SDS011;10780;50.942;4.028;2023-04-25T03:49:19;17.42;;;5.30;;
21243;SDS011;10780;50.942;4.028;2023-04-25T03:51:45;13.88;;;4.60;;
21243;SDS011;10780;50.942;4.028;2023-04-25T03:54:10;10.85;;;4.55;;
21243;SDS011;10780;50.942;4.028;2023-04-25T03:56:36;22.38;;;6.45;;
21243;SDS011;10780;50.942;4.028;2023-04-25T03:59:02;18.08;;;5.15;;
21243;SDS011;10780;50.942;4.028;2023-04-25T04:01:27;12.20;;;4.47;;
21243;SDS011;10780;50.942;4.028;2023-04-25T04:03:53;18.50;;;5.82;;
21243;SDS011;10780;50.942;4.028;2023-04-25T04:06:18;16.50;;;4.95;;
21243;SDS011;10780;50.942;4.028;2023-04-25T04:08:45;19.65;;;6.43;;
21243;SDS011;10780;50.942;4.028;2023-04-25T04:11:11;17.40;;;5.10;;
21243;SDS011;10780;50.942;4.028;2023-04-25T04:13:37;15.55;;;5.13;;
21243;SDS011;10780;50.942;4.028;2023-04-25T04:16:02;13.80;;;5.57;;
21243;SDS011;10780;50.942;4.028;2023-04-25T04:18:29;18.08;;;5.63;;
21243;SDS011;10780;50.942;4.028;2023-04-25T04:20:55;13.77;;;5.60;;
21243;SDS011;10780;50.942;4.028;2023-04-25T04:23:22;21.40;;;6.15;;
21243;SDS011;10780;50.942;4.028;2023-04-25T04:25:48;10.43;;;5.30;;
21243;SDS011;10780;50.942;4.028;2023-04-25T04:28:14;15.93;;;5.18;;
21243;SDS011;10780;50.942;4.028;2023-04-25T04:30:41;13.85;;;5.75;;
21243;SDS011;10780;50.942;4.028;2023-04-25T04:33:07;14.93;;;5.18;;
21243;SDS011;10780;50.942;4.028;2023-04-25T04:35:33;8.50;;;4.18;;
21243;SDS011;10780;50.942;4.028;2023-04-25T04:37:59;14.00;;;6.00;;
21243;SDS011;10780;50.942;4.028;2023-04-25T04:40:25;13.10;;;5.20;;
21243;SDS011;10780;50.942;4.028;2023-04-25T04:42:51;11.30;;;5.43;;
21243;SDS011;10780;50.942;4.028;2023-04-25T04:45:18;12.73;;;5.05;;
21243;SDS011;10780;50.942;4.028;2023-04-25T04:47:43;14.55;;;4.30;;
21243;SDS011;10780;50.942;4.028;2023-04-25T04:50:09;11.25;;;4.45;;
21243;SDS011;10780;50.942;4.028;2023-04-25T04:52:36;15.52;;;5.10;;
21243;SDS011;10780;50.942;4.028;2023-04-25T04:55:02;14.23;;;5.75;;
21243;SDS011;10780;50.942;4.028;2023-04-25T04:57:30;16.27;;;4.63;;
21243;SDS011;10780;50.942;4.028;2023-04-25T04:59:57;8.65;;;4.15;;
21243;SDS011;10780;50.942;4.028;2023-04-25T05:02:24;11.63;;;4.32;;
21243;SDS011;10780;50.942;4.028;2023-04-25T05:04:50;16.50;;;5.60;;
21243;SDS011;10780;50.942;4.028;2023-04-25T05:07:16;13.57;;;4.57;;
21243;SDS011;10780;50.942;4.028;2023-04-25T05:09:42;9.07;;;4.18;;
21243;SDS011;10780;50.942;4.028;2023-04-25T05:12:08;13.00;;;4.47;;
21243;SDS011;10780;50.942;4.028;2023-04-25T05:14:34;14.65;;;4.63;;
21243;SDS011;10780;50.942;4.028;2023-04-25T05:17:00;12.63;;;4.60;;
21243;SDS011;10780;50.942;4.028;2023-04-25T05:19:25;10.60;;;4.47;;
21243;SDS011;10780;50.942;4.028;2023-04-25T05:21:51;12.50;;;4.70;;
21243;SDS011;10780;50.942;4.028;2023-04-25T05:24:17;13.95;;;4.00;;
21243;SDS011;10780;50.942;4.028;2023-04-25T05:26:43;10.60;;;4.30;;
21243;SDS011;10780;50.942;4.028;2023-04-25T05:29:08;12.85;;;4.78;;
21243;SDS011;10780;50.942;4.028;2023-04-25T05:31:35;13.45;;;4.50;;
21243;SDS011;10780;50.942;4.028;2023-04-25T05:34:01;8.20;;;3.75;;
21243;SDS011;10780;50.942;4.028;2023-04-25T05:36:27;11.88;;;4.93;;
21243;SDS011;10780;50.942;4.028;2023-04-25T05:38:53;11.93;;;4.75;;
21243;SDS011;10780;50.942;4.028;2023-04-25T05:41:18;11.00;;;4.25;;
21243;SDS011;10780;50.942;4.028;2023-04-25T05:43:45;11.98;;;5.22;;
21243;SDS011;10780;50.942;4.028;2023-04-25T05:46:12;9.93;;;4.30;;
21243;SDS011;10780;50.942;4.028;2023-04-25T05:48:38;15.02;;;4.68;;
21243;SDS011;10780;50.942;4.028;2023-04-25T05:51:04;10.90;;;4.00;;
21243;SDS011;10780;50.942;4.028;2023-04-25T05:53:30;12.23;;;4.70;;
21243;SDS011;10780;50.942;4.028;2023-04-25T05:55:55;8.90;;;4.18;;
21243;SDS011;10780;50.942;4.028;2023-04-25T05:58:21;10.63;;;4.57;;
21243;SDS011;10780;50.942;4.028;2023-04-25T06:00:47;14.65;;;4.93;;
21243;SDS011;10780;50.942;4.028;2023-04-25T06:03:12;12.25;;;5.82;;
21243;SDS011;10780;50.942;4.028;2023-04-25T06:05:43;11.95;;;4.95;;
21243;SDS011;10780;50.942;4.028;2023-04-25T06:08:09;11.57;;;4.63;;
21243;SDS011;10780;50.942;4.028;2023-04-25T06:10:35;11.80;;;5.82;;
21243;SDS011;10780;50.942;4.028;2023-04-25T06:13:01;12.52;;;5.00;;
21243;SDS011;10780;50.942;4.028;2023-04-25T06:15:27;12.32;;;5.07;;
21243;SDS011;10780;50.942;4.028;2023-04-25T06:17:53;16.13;;;5.25;;
21243;SDS011;10780;50.942;4.028;2023-04-25T06:20:19;14.13;;;5.63;;
21243;SDS011;10780;50.942;4.028;2023-04-25T06:22:48;14.98;;;5.30;;
21243;SDS011;10780;50.942;4.028;2023-04-25T06:25:15;17.65;;;5.60;;
21243;SDS011;10780;50.942;4.028;2023-04-25T06:27:42;12.98;;;5.65;;
21243;SDS011;10780;50.942;4.028;2023-04-25T06:30:09;10.95;;;5.03;;
21243;SDS011;10780;50.942;4.028;2023-04-25T06:32:38;10.55;;;5.30;;
21243;SDS011;10780;50.942;4.028;2023-04-25T06:35:04;13.10;;;5.18;;
21243;SDS011;10780;50.942;4.028;2023-04-25T06:37:31;12.98;;;4.75;;
21243;SDS011;10780;50.942;4.028;2023-04-25T06:39:57;9.10;;;4.30;;
21243;SDS011;10780;50.942;4.028;2023-04-25T06:42:24;14.80;;;4.53;;
21243;SDS011;10780;50.942;4.028;2023-04-25T06:44:50;12.57;;;4.68;;
21243;SDS011;10780;50.942;4.028;2023-04-25T06:47:17;11.27;;;5.03;;
21243;SDS011;10780;50.942;4.028;2023-04-25T06:49:43;8.48;;;4.75;;
21243;SDS011;10780;50.942;4.028;2023-04-25T06:52:11;11.38;;;4.20;;
21243;SDS011;10780;50.942;4.028;2023-04-25T06:54:36;13.68;;;4.82;;
21243;SDS011;10780;50.942;4.028;2023-04-25T06:57:02;11.32;;;4.10;;
21243;SDS011;10780;50.942;4.028;2023-04-25T06:59:28;9.77;;;4.05;;
21243;SDS011;10780;50.942;4.028;2023-04-25T07:01:53;10.43;;;4.65;;
21243;SDS011;10780;50.942;4.028;2023-04-25T07:04:19;13.55;;;4.95;;
21243;SDS011;10780;50.942;4.028;2023-04-25T07:06:44;15.05;;;4.55;;
21243;SDS011;10780;50.942;4.028;2023-04-25T07:09:12;11.20;;;3.72;;
21243;SDS011;10780;50.942;4.028;2023-04-25T07:11:38;7.95;;;3.65;;
21243;SDS011;10780;50.942;4.028;2023-04-25T07:14:03;10.27;;;4.40;;
21243;SDS011;10780;50.942;4.028;2023-04-25T07:16:29;11.25;;;3.90;;
21243;SDS011;10780;50.942;4.028;2023-04-25T07:18:55;14.07;;;4.30;;
21243;SDS011;10780;50.942;4.028;2023-04-25T07:21:21;10.15;;;3.60;;
21243;SDS011;10780;50.942;4.028;2023-04-25T07:23:46;11.57;;;3.65;;
21243;SDS011;10780;50.942;4.028;2023-04-25T07:26:12;8.60;;;3.28;;
21243;SDS011;10780;50.942;4.028;2023-04-25T07:28:38;7.93;;;4.05;;
21243;SDS011;10780;50.942;4.028;2023-04-25T07:31:04;10.13;;;3.55;;
21243;SDS011;10780;50.942;4.028;2023-04-25T07:33:30;11.98;;;3.53;;
21243;SDS011;10780;50.942;4.028;2023-04-25T07:35:56;9.95;;;3.50;;
21243;SDS011;10780;50.942;4.028;2023-04-25T07:38:22;12.77;;;3.38;;
21243;SDS011;10780;50.942;4.028;2023-04-25T07:40:48;7.68;;;3.30;;
21243;SDS011;10780;50.942;4.028;2023-04-25T07:43:14;6.82;;;2.90;;
21243;SDS011;10780;50.942;4.028;2023-04-25T07:45:42;11.38;;;3.08;;
21243;SDS011;10780;50.942;4.028;2023-04-25T07:48:08;7.50;;;3.85;;
21243;SDS011;10780;50.942;4.028;2023-04-25T07:50:35;5.55;;;2.83;;
21243;SDS011;10780;50.942;4.028;2023-04-25T07:53:00;8.63;;;2.88;;
21243;SDS011;10780;50.942;4.028;2023-04-25T07:55:26;7.00;;;2.83;;
21243;SDS011;10780;50.942;4.028;2023-04-25T07:57:51;5.35;;;2.20;;
21243;SDS011;10780;50.942;4.028;2023-04-25T08:00:17;7.35;;;2.80;;
21243;SDS011;10780;50.942;4.028;2023-04-25T08:02:43;7.88;;;2.67;;
21243;SDS011;10780;50.942;4.028;2023-04-25T08:05:09;6.03;;;2.75;;
21243;SDS011;10780;50.942;4.028;2023-04-25T08:07:39;7.85;;;3.33;;
21243;SDS011;10780;50.942;4.028;2023-04-25T08:10:06;9.45;;;3.65;;
21243;SDS011;10780;50.942;4.028;2023-04-25T08:12:32;5.05;;;2.67;;
21243;SDS011;10780;50.942;4.028;2023-04-25T08:14:58;12.98;;;3.38;;
21243;SDS011;10780;50.942;4.028;2023-04-25T08:17:24;9.00;;;3.70;;
21243;SDS011;10780;50.942;4.028;2023-04-25T08:19:53;6.40;;;2.83;;
21243;SDS011;10780;50.942;4.028;2023-04-25T08:22:22;6.90;;;3.28;;
21243;SDS011;10780;50.942;4.028;2023-04-25T08:24:48;6.75;;;3.05;;
21243;SDS011;10780;50.942;4.028;2023-04-25T08:27:14;8.65;;;2.83;;
21243;SDS011;10780;50.942;4.028;2023-04-25T08:29:43;7.97;;;2.67;;
21243;SDS011;10780;50.942;4.028;2023-04-25T08:32:09;8.13;;;2.47;;
21243;SDS011;10780;50.942;4.028;2023-04-25T08:34:35;7.03;;;3.00;;
21243;SDS011;10780;50.942;4.028;2023-04-25T08:37:02;10.13;;;2.88;;
21243;SDS011;10780;50.942;4.028;2023-04-25T08:39:29;6.78;;;2.20;;
21243;SDS011;10780;50.942;4.028;2023-04-25T08:41:55;7.45;;;2.60;;
21243;SDS011;10780;50.942;4.028;2023-04-25T08:44:21;8.65;;;2.60;;
21243;SDS011;10780;50.942;4.028;2023-04-25T08:46:48;3.88;;;2.30;;
21243;SDS011;10780;50.942;4.028;2023-04-25T08:49:15;6.00;;;2.60;;
21243;SDS011;10780;50.942;4.028;2023-04-25T08:51:45;7.88;;;2.50;;
21243;SDS011;10780;50.942;4.028;2023-04-25T08:54:12;5.47;;;2.50;;
21243;SDS011;10780;50.942;4.028;2023-04-25T08:56:46;7.72;;;2.80;;
21243;SDS011;10780;50.942;4.028;2023-04-25T08:59:12;6.35;;;2.22;;
21243;SDS011;10780;50.942;4.028;2023-04-25T09:01:39;5.35;;;2.60;;
21243;SDS011;10780;50.942;4.028;2023-04-25T09:04:05;8.93;;;3.05;;
21243;SDS011;10780;50.942;4.028;2023-04-25T09:06:31;9.05;;;2.70;;
21243;SDS011;10780;50.942;4.028;2023-04-25T09:09:07;8.10;;;2.90;;
21243;SDS011;10780;50.942;4.028;2023-04-25T09:11:35;7.95;;;2.60;;
21243;SDS011;10780;50.942;4.028;2023-04-25T09:16:49;7.15;;;2.70;;
21243;SDS011;10780;50.942;4.028;2023-04-25T09:19:22;6.28;;;2.42;;
21243;SDS011;10780;50.942;4.028;2023-04-25T09:21:50;4.55;;;2.33;;
21243;SDS011;10780;50.942;4.028;2023-04-25T09:24:15;6.63;;;2.10;;
21243;SDS011;10780;50.942;4.028;2023-04-25T09:26:44;7.95;;;2.28;;
21243;SDS011;10780;50.942;4.028;2023-04-25T09:29:10;4.70;;;2.35;;
21243;SDS011;10780;50.942;4.028;2023-04-25T09:31:35;2.65;;;2.17;;
21243;SDS011;10780;50.942;4.028;2023-04-25T09:34:01;5.95;;;2.45;;
21243;SDS011;10780;50.942;4.028;2023-04-25T09:36:27;4.60;;;2.00;;
21243;SDS011;10780;50.942;4.028;2023-04-25T09:38:54;6.35;;;2.10;;
21243;SDS011;10780;50.942;4.028;2023-04-25T09:41:24;5.60;;;2.03;;
21243;SDS011;10780;50.942;4.028;2023-04-25T09:43:50;5.35;;;1.77;;
21243;SDS011;10780;50.942;4.028;2023-04-25T09:46:16;5.03;;;2.15;;
21243;SDS011;10780;50.942;4.028;2023-04-25T09:48:50;3.92;;;1.90;;
21243;SDS011;10780;50.942;4.028;2023-04-25T09:51:16;5.03;;;2.05;;
21243;SDS011;10780;50.942;4.028;2023-04-25T09:53:42;3.08;;;2.03;;
21243;SDS011;10780;50.942;4.028;2023-04-25T09:56:11;6.60;;;2.45;;
21243;SDS011;10780;50.942;4.028;2023-04-25T09:58:38;5.97;;;2.30;;
21243;SDS011;10780;50.942;4.028;2023-04-25T10:01:06;2.75;;;2.20;;
21243;SDS011;10780;50.942;4.028;2023-04-25T10:03:34;5.13;;;2.55;;
21243;SDS011;10780;50.942;4.028;2023-04-25T10:06:02;5.55;;;2.30;;
21243;SDS011;10780;50.942;4.028;2023-04-25T10:08:31;6.60;;;2.10;;
21243;SDS011;10780;50.942;4.028;2023-04-25T10:11:01;6.63;;;2.22;;
21243;SDS011;10780;50.942;4.028;2023-04-25T10:13:32;7.45;;;2.50;;
21243;SDS011;10780;50.942;4.028;2023-04-25T10:15:59;11.63;;;3.00;;
21243;SDS011;10780;50.942;4.028;2023-04-25T10:18:26;7.07;;;2.88;;
21243;SDS011;10780;50.942;4.028;2023-04-25T10:20:54;5.13;;;2.40;;
21243;SDS011;10780;50.942;4.028;2023-04-25T10:23:21;6.38;;;2.60;;
21243;SDS011;10780;50.942;4.028;2023-04-25T10:25:48;7.30;;;2.75;;
21243;SDS011;10780;50.942;4.028;2023-04-25T10:28:18;2.33;;;2.13;;
21243;SDS011;10780;50.942;4.028;2023-04-25T10:30:58;6.00;;;2.45;;
21243;SDS011;10780;50.942;4.028;2023-04-25T10:36:21;5.38;;;2.50;;
21243;SDS011;10780;50.942;4.028;2023-04-25T10:38:48;5.18;;;2.17;;
21243;SDS011;10780;50.942;4.028;2023-04-25T10:41:20;4.47;;;2.60;;
21243;SDS011;10780;50.942;4.028;2023-04-25T10:43:48;4.53;;;2.63;;
21243;SDS011;10780;50.942;4.028;2023-04-25T10:46:22;3.15;;;2.50;;
21243;SDS011;10780;50.942;4.028;2023-04-25T10:48:51;5.07;;;2.60;;
21243;SDS011;10780;50.942;4.028;2023-04-25T10:51:28;4.80;;;2.17;;
21243;SDS011;10780;50.942;4.028;2023-04-25T10:59:00;4.50;;;1.70;;
21243;SDS011;10780;50.942;4.028;2023-04-25T11:01:28;2.67;;;1.90;;
21243;SDS011;10780;50.942;4.028;2023-04-25T11:04:01;7.60;;;2.33;;
21243;SDS011;10780;50.942;4.028;2023-04-25T11:09:02;4.78;;;2.13;;
21243;SDS011;10780;50.942;4.028;2023-04-25T11:11:28;3.90;;;1.80;;
21243;SDS011;10780;50.942;4.028;2023-04-25T11:13:55;3.30;;;1.65;;
21243;SDS011;10780;50.942;4.028;2023-04-25T11:16:20;6.28;;;2.40;;
21243;SDS011;10780;50.942;4.028;2023-04-25T11:18:50;5.45;;;2.40;;
21243;SDS011;10780;50.942;4.028;2023-04-25T11:21:15;4.38;;;2.15;;
21243;SDS011;10780;50.942;4.028;2023-04-25T11:23:44;3.42;;;1.98;;
21243;SDS011;10780;50.942;4.028;2023-04-25T11:26:11;3.47;;;2.30;;
21243;SDS011;10780;50.942;4.028;2023-04-25T11:28:38;4.10;;;2.17;;
21243;SDS011;10780;50.942;4.028;2023-04-25T11:31:04;3.97;;;1.88;;
21243;SDS011;10780;50.942;4.028;2023-04-25T11:33:30;2.90;;;1.92;;
21243;SDS011;10780;50.942;4.028;2023-04-25T11:35:55;2.30;;;1.27;;
21243;SDS011;10780;50.942;4.028;2023-04-25T11:38:22;4.22;;;1.63;;
21243;SDS011;10780;50.942;4.028;2023-04-25T11:40:52;4.30;;;1.73;;
21243;SDS011;10780;50.942;4.028;2023-04-25T11:43:21;4.10;;;1.63;;
21243;SDS011;10780;50.942;4.028;2023-04-25T11:45:48;4.13;;;1.40;;
21243;SDS011;10780;50.942;4.028;2023-04-25T11:48:15;4.07;;;1.73;;
21243;SDS011;10780;50.942;4.028;2023-04-25T11:50:41;3.83;;;1.40;;
21243;SDS011;10780;50.942;4.028;2023-04-25T11:53:07;7.70;;;1.85;;
21243;SDS011;10780;50.942;4.028;2023-04-25T11:55:33;3.10;;;1.60;;
21243;SDS011;10780;50.942;4.028;2023-04-25T11:58:00;4.50;;;1.75;;
21243;SDS011;10780;50.942;4.028;2023-04-25T12:00:27;5.15;;;1.80;;
21243;SDS011;10780;50.942;4.028;2023-04-25T12:02:53;3.22;;;1.92;;
21243;SDS011;10780;50.942;4.028;2023-04-25T12:05:20;2.92;;;1.55;;
21243;SDS011;10780;50.942;4.028;2023-04-25T12:07:49;5.38;;;1.77;;
21243;SDS011;10780;50.942;4.028;2023-04-25T12:10:15;2.90;;;1.90;;
21243;SDS011;10780;50.942;4.028;2023-04-25T12:12:43;5.50;;;2.17;;
21243;SDS011;10780;50.942;4.028;2023-04-25T12:15:11;6.93;;;2.60;;
21243;SDS011;10780;50.942;4.028;2023-04-25T12:17:39;6.50;;;2.20;;
21243;SDS011;10780;50.942;4.028;2023-04-25T12:20:06;4.07;;;2.10;;
21243;SDS011;10780;50.942;4.028;2023-04-25T12:22:37;4.82;;;1.80;;
21243;SDS011;10780;50.942;4.028;2023-04-25T12:25:03;6.60;;;2.40;;
21243;SDS011;10780;50.942;4.028;2023-04-25T12:27:30;4.20;;;2.80;;
21243;SDS011;10780;50.942;4.028;2023-04-25T12:29:57;8.77;;;2.90;;
21243;SDS011;10780;50.942;4.028;2023-04-25T12:32:23;6.22;;;2.63;;
21243;SDS011;10780;50.942;4.028;2023-04-25T12:34:50;6.53;;;2.95;;
21243;SDS011;10780;50.942;4.028;2023-04-25T12:37:15;4.38;;;2.80;;
21243;SDS011;10780;50.942;4.028;2023-04-25T12:39:41;6.15;;;3.10;;
21243;SDS011;10780;50.942;4.028;2023-04-25T12:42:08;5.25;;;2.90;;
21243;SDS011;10780;50.942;4.028;2023-04-25T12:44:38;4.25;;;2.47;;
21243;SDS011;10780;50.942;4.028;2023-04-25T12:47:04;5.15;;;2.20;;
21243;SDS011;10780;50.942;4.028;2023-04-25T12:49:30;6.85;;;2.50;;
21243;SDS011;10780;50.942;4.028;2023-04-25T12:51:57;4.00;;;2.50;;
21243;SDS011;10780;50.942;4.028;2023-04-25T12:54:23;5.00;;;2.30;;
21243;SDS011;10780;50.942;4.028;2023-04-25T12:56:49;3.50;;;2.17;;
21243;SDS011;10780;50.942;4.028;2023-04-25T12:59:16;3.63;;;2.20;;
21243;SDS011;10780;50.942;4.028;2023-04-25T13:01:42;4.40;;;2.03;;
21243;SDS011;10780;50.942;4.028;2023-04-25T13:04:07;3.92;;;2.05;;
21243;SDS011;10780;50.942;4.028;2023-04-25T13:06:33;4.65;;;2.15;;
21243;SDS011;10780;50.942;4.028;2023-04-25T13:08:59;4.53;;;1.90;;
21243;SDS011;10780;50.942;4.028;2023-04-25T13:11:25;3.25;;;2.08;;
21243;SDS011;10780;50.942;4.028;2023-04-25T13:13:51;5.43;;;2.13;;
21243;SDS011;10780;50.942;4.028;2023-04-25T13:16:16;8.10;;;2.30;;
21243;SDS011;10780;50.942;4.028;2023-04-25T13:18:42;4.47;;;2.47;;
21243;SDS011;10780;50.942;4.028;2023-04-25T13:21:09;6.97;;;2.42;;
21243;SDS011;10780;50.942;4.028;2023-04-25T13:23:36;5.38;;;2.08;;
21243;SDS011;10780;50.942;4.028;2023-04-25T13:26:02;5.20;;;2.40;;
21243;SDS011;10780;50.942;4.028;2023-04-25T13:28:28;4.82;;;2.20;;
21243;SDS011;10780;50.942;4.028;2023-04-25T13:30:54;2.67;;;1.67;;
21243;SDS011;10780;50.942;4.028;2023-04-25T13:33:20;5.65;;;1.80;;
21243;SDS011;10780;50.942;4.028;2023-04-25T13:35:46;6.15;;;2.00;;
21243;SDS011;10780;50.942;4.028;2023-04-25T13:38:19;3.97;;;2.00;;
21243;SDS011;10780;50.942;4.028;2023-04-25T13:40:48;4.85;;;2.10;;
21243;SDS011;10780;50.942;4.028;2023-04-25T13:43:17;4.10;;;1.67;;
21243;SDS011;10780;50.942;4.028;2023-04-25T13:45:44;6.05;;;2.03;;
21243;SDS011;10780;50.942;4.028;2023-04-25T13:48:10;5.32;;;1.77;;
21243;SDS011;10780;50.942;4.028;2023-04-25T13:50:35;4.88;;;1.90;;
21243;SDS011;10780;50.942;4.028;2023-04-25T13:53:01;3.63;;;1.80;;
21243;SDS011;10780;50.942;4.028;2023-04-25T13:55:27;4.18;;;1.80;;
21243;SDS011;10780;50.942;4.028;2023-04-25T13:57:52;4.00;;;2.08;;
21243;SDS011;10780;50.942;4.028;2023-04-25T14:00:18;7.97;;;2.30;;
21243;SDS011;10780;50.942;4.028;2023-04-25T14:02:45;6.60;;;2.22;;
21243;SDS011;10780;50.942;4.028;2023-04-25T14:05:10;6.05;;;2.20;;
21243;SDS011;10780;50.942;4.028;2023-04-25T14:07:36;5.22;;;2.45;;
21243;SDS011;10780;50.942;4.028;2023-04-25T14:10:02;4.30;;;2.20;;
21243;SDS011;10780;50.942;4.028;2023-04-25T14:12:29;5.50;;;2.50;;
21243;SDS011;10780;50.942;4.028;2023-04-25T14:14:55;3.20;;;2.25;;
21243;SDS011;10780;50.942;4.028;2023-04-25T14:17:21;3.22;;;2.53;;
21243;SDS011;10780;50.942;4.028;2023-04-25T14:19:46;3.13;;;2.40;;
21243;SDS011;10780;50.942;4.028;2023-04-25T14:22:13;3.72;;;2.28;;
21243;SDS011;10780;50.942;4.028;2023-04-25T14:24:40;5.25;;;2.50;;
21243;SDS011;10780;50.942;4.028;2023-04-25T14:27:06;4.38;;;1.80;;
21243;SDS011;10780;50.942;4.028;2023-04-25T14:29:32;6.03;;;2.15;;
21243;SDS011;10780;50.942;4.028;2023-04-25T14:31:57;5.25;;;2.13;;
21243;SDS011;10780;50.942;4.028;2023-04-25T14:34:24;4.80;;;1.80;;
21243;SDS011;10780;50.942;4.028;2023-04-25T14:36:50;4.60;;;1.90;;
21243;SDS011;10780;50.942;4.028;2023-04-25T14:39:17;4.22;;;1.60;;
21243;SDS011;10780;50.942;4.028;2023-04-25T14:41:43;3.13;;;1.50;;
21243;SDS011;10780;50.942;4.028;2023-04-25T14:44:09;3.53;;;1.73;;
21243;SDS011;10780;50.942;4.028;2023-04-25T14:46:35;4.32;;;1.90;;
21243;SDS011;10780;50.942;4.028;2023-04-25T14:49:01;3.38;;;1.70;;